createdAt,value
2019-06-10T00:00:01.568Z,15.02
2019-06-10T00:01:04.155Z,14.95
2019-06-10T00:02:02.529Z,14.95
2019-06-10T00:03:02.853Z,15.02
2019-06-10T00:04:04.424Z,14.94
2019-06-10T00:05:03.739Z,14.98
2019-06-10T00:06:03.439Z,14.95
2019-06-10T00:07:02.046Z,15.01
2019-06-10T00:08:02.119Z,15.02
2019-06-10T00:09:03.085Z,14.98
2019-06-10T00:10:01.103Z,15.06
2019-06-10T00:11:04.180Z,15.11
2019-06-10T00:12:02.789Z,15.02
2019-06-10T00:13:01.938Z,15.01
2019-06-10T00:14:02.483Z,14.99
2019-06-10T00:15:01.830Z,14.99
2019-06-10T00:16:02.650Z,14.98
2019-06-10T00:17:02.018Z,14.99
2019-06-10T00:18:18.710Z,15.01
2019-06-10T00:19:02.899Z,15.13
2019-06-10T00:20:03.364Z,15.10
2019-06-10T00:21:03.284Z,15.09
2019-06-10T00:22:01.990Z,15.14
2019-06-10T00:23:02.102Z,15.17
2019-06-10T00:24:02.163Z,15.11
2019-06-10T00:25:02.260Z,15.25
2019-06-10T00:26:03.196Z,15.28
2019-06-10T00:27:02.144Z,15.28
2019-06-10T00:28:00.558Z,15.27
2019-06-10T00:29:00.687Z,15.34
2019-06-10T00:30:02.838Z,15.27
2019-06-10T00:31:02.077Z,15.31
2019-06-10T00:32:03.173Z,15.28
2019-06-10T00:33:01.184Z,15.23
2019-06-10T00:34:02.924Z,15.32
2019-06-10T00:35:01.634Z,15.29
2019-06-10T00:36:01.718Z,15.35
2019-06-10T00:37:02.059Z,15.23
2019-06-10T00:38:01.907Z,15.28
2019-06-10T00:38:59.404Z,15.34
2019-06-10T00:39:59.930Z,15.36
2019-06-10T00:41:00.006Z,15.32
2019-06-10T00:42:02.016Z,15.35
2019-06-10T00:43:00.081Z,15.38
2019-06-10T00:44:01.808Z,15.34
2019-06-10T00:45:02.854Z,15.36
2019-06-10T00:46:00.692Z,15.44
2019-06-10T00:47:00.675Z,15.46
2019-06-10T00:48:14.866Z,15.47
2019-06-10T00:49:01.571Z,15.44
2019-06-10T00:50:00.839Z,15.46
2019-06-10T00:51:00.918Z,15.56
2019-06-10T00:52:01.208Z,15.46
2019-06-10T00:53:01.325Z,15.49
2019-06-10T00:53:58.896Z,15.49
2019-06-10T00:55:01.110Z,15.50
2019-06-10T00:55:58.732Z,15.49
2019-06-10T00:57:00.865Z,15.47
2019-06-10T00:58:01.070Z,15.44
2019-06-10T00:59:01.027Z,15.44
2019-06-10T01:00:00.959Z,15.39
2019-06-10T01:01:00.824Z,15.47
2019-06-10T01:02:01.248Z,15.47
2019-06-10T01:03:00.671Z,15.46
2019-06-10T01:03:58.557Z,15.46
2019-06-10T01:05:00.656Z,15.54
2019-06-10T01:05:58.416Z,15.53
2019-06-10T01:07:00.623Z,15.50
2019-06-10T01:07:58.308Z,15.51
2019-06-10T01:09:00.516Z,15.56
2019-06-10T01:10:00.970Z,15.59
2019-06-10T01:10:58.208Z,15.64
2019-06-10T01:11:58.198Z,15.60
2019-06-10T01:13:00.739Z,15.67
2019-06-10T01:13:58.139Z,15.60
2019-06-10T01:14:58.067Z,15.64
2019-06-10T01:15:58.070Z,15.65
2019-06-10T01:16:58.053Z,15.67
2019-06-10T01:17:58.036Z,15.57
2019-06-10T01:18:58.015Z,15.62
2019-06-10T01:19:57.911Z,15.65
2019-06-10T01:20:57.870Z,15.62
2019-06-10T01:21:57.892Z,15.71
2019-06-10T01:22:57.892Z,15.68
2019-06-10T01:23:57.789Z,15.68
2019-06-10T01:24:57.776Z,15.56
2019-06-10T01:25:57.736Z,15.57
2019-06-10T01:26:57.725Z,15.60
2019-06-10T01:27:57.692Z,15.60
2019-06-10T01:28:57.631Z,15.62
2019-06-10T01:29:57.615Z,15.57
2019-06-10T01:30:57.564Z,15.65
2019-06-10T01:31:57.517Z,15.54
2019-06-10T01:32:57.480Z,15.59
2019-06-10T01:33:57.431Z,15.65
2019-06-10T01:34:57.429Z,15.62
2019-06-10T01:35:57.450Z,15.57
2019-06-10T01:36:57.357Z,15.57
2019-06-10T01:37:57.337Z,15.59
2019-06-10T01:38:57.281Z,15.59
2019-06-10T01:39:57.252Z,15.67
2019-06-10T01:40:57.254Z,15.57
2019-06-10T01:41:57.203Z,15.64
2019-06-10T01:42:57.136Z,15.65
2019-06-10T01:43:57.099Z,15.67
2019-06-10T01:44:57.058Z,15.67
2019-06-10T01:45:57.022Z,15.68
2019-06-10T01:46:56.986Z,15.68
2019-06-10T01:47:56.966Z,15.59
2019-06-10T01:48:56.913Z,15.51
2019-06-10T01:49:56.879Z,15.51
2019-06-10T01:50:56.851Z,15.59
2019-06-10T01:51:56.818Z,15.62
2019-06-10T01:52:56.816Z,15.64
2019-06-10T01:53:56.810Z,15.65
2019-06-10T01:54:56.708Z,15.65
2019-06-10T01:55:56.710Z,15.65
2019-06-10T01:56:56.686Z,15.59
2019-06-10T01:57:56.651Z,15.72
2019-06-10T01:58:56.589Z,15.67
2019-06-10T01:59:56.546Z,15.57
2019-06-10T02:00:56.578Z,15.68
2019-06-10T02:01:56.497Z,15.60
2019-06-10T02:02:56.468Z,15.67
2019-06-10T02:03:56.438Z,15.54
2019-06-10T02:04:56.404Z,15.68
2019-06-10T02:05:56.375Z,15.59
2019-06-10T02:06:56.323Z,15.60
2019-06-10T02:07:56.281Z,15.64
2019-06-10T02:08:56.235Z,15.53
2019-06-10T02:09:56.205Z,15.51
2019-06-10T02:10:56.173Z,15.46
2019-06-10T02:11:56.156Z,15.36
2019-06-10T02:12:56.101Z,15.41
2019-06-10T02:13:56.065Z,15.49
2019-06-10T02:14:56.033Z,15.47
2019-06-10T02:15:56.002Z,15.41
2019-06-10T02:16:55.964Z,15.39
2019-06-10T02:17:55.929Z,15.38
2019-06-10T02:19:00.565Z,15.39
2019-06-10T02:19:55.864Z,15.34
2019-06-10T02:20:55.825Z,15.38
2019-06-10T02:21:55.789Z,15.38
2019-06-10T02:22:55.775Z,15.39
2019-06-10T02:23:55.747Z,15.47
2019-06-10T02:24:55.710Z,15.57
2019-06-10T02:25:55.670Z,15.51
2019-06-10T02:26:55.652Z,15.64
2019-06-10T02:27:55.605Z,15.62
2019-06-10T02:28:55.574Z,15.56
2019-06-10T02:29:55.548Z,15.67
2019-06-10T02:30:56.031Z,15.51
2019-06-10T02:31:55.479Z,15.53
2019-06-10T02:32:55.433Z,15.53
2019-06-10T02:33:55.397Z,15.56
2019-06-10T02:35:08.291Z,15.53
2019-06-10T02:35:55.327Z,15.47
2019-06-10T02:36:55.309Z,15.60
2019-06-10T02:37:55.284Z,15.46
2019-06-10T02:38:55.222Z,15.56
2019-06-10T02:39:55.176Z,15.53
2019-06-10T02:40:55.143Z,15.53
2019-06-10T02:41:55.119Z,15.51
2019-06-10T02:42:55.075Z,15.46
2019-06-10T02:43:55.040Z,15.44
2019-06-10T02:44:55.007Z,15.51
2019-06-10T02:45:54.973Z,15.51
2019-06-10T02:46:54.941Z,15.53
2019-06-10T02:47:54.905Z,15.60
2019-06-10T02:48:54.884Z,15.53
2019-06-10T02:50:02.575Z,15.62
2019-06-10T02:50:54.815Z,15.64
2019-06-10T02:51:54.800Z,15.71
2019-06-10T02:52:54.753Z,15.72
2019-06-10T02:53:54.719Z,15.65
2019-06-10T02:54:54.714Z,15.67
2019-06-10T02:55:54.650Z,15.72
2019-06-10T02:56:54.617Z,15.68
2019-06-10T02:57:54.586Z,15.67
2019-06-10T02:58:54.555Z,15.68
2019-06-10T02:59:54.727Z,15.65
2019-06-10T03:00:54.782Z,15.71
2019-06-10T03:01:54.446Z,15.68
2019-06-10T03:02:54.411Z,15.67
2019-06-10T03:03:54.599Z,15.68
2019-06-10T03:04:54.334Z,15.72
2019-06-10T03:05:54.338Z,15.69
2019-06-10T03:06:54.560Z,15.59
2019-06-10T03:07:54.236Z,15.68
2019-06-10T03:08:55.136Z,15.68
2019-06-10T03:09:54.166Z,15.67
2019-06-10T03:10:54.908Z,15.65
2019-06-10T03:11:54.086Z,15.69
2019-06-10T03:12:54.051Z,15.72
2019-06-10T03:13:54.022Z,15.75
2019-06-10T03:14:53.994Z,15.65
2019-06-10T03:15:53.950Z,15.74
2019-06-10T03:16:53.919Z,15.67
2019-06-10T03:17:53.881Z,15.72
2019-06-10T03:18:53.854Z,15.65
2019-06-10T03:19:53.816Z,15.65
2019-06-10T03:20:53.782Z,15.67
2019-06-10T03:21:53.747Z,15.68
2019-06-10T03:22:53.721Z,15.65
2019-06-10T03:23:53.681Z,15.72
2019-06-10T03:24:53.702Z,15.75
2019-06-10T03:25:53.627Z,15.78
2019-06-10T03:26:53.601Z,15.74
2019-06-10T03:27:53.582Z,15.68
2019-06-10T03:28:53.551Z,15.68
2019-06-10T03:29:53.499Z,15.74
2019-06-10T03:30:58.122Z,15.76
2019-06-10T03:31:55.280Z,15.74
2019-06-10T03:32:55.549Z,15.74
2019-06-10T03:33:54.239Z,15.74
2019-06-10T03:34:54.852Z,15.64
2019-06-10T03:35:53.319Z,15.68
2019-06-10T03:36:53.568Z,15.68
2019-06-10T03:37:53.230Z,15.74
2019-06-10T03:38:53.720Z,15.75
2019-06-10T03:39:53.202Z,15.72
2019-06-10T03:40:53.110Z,15.80
2019-06-10T03:41:53.072Z,15.83
2019-06-10T03:42:53.040Z,15.82
2019-06-10T03:43:53.218Z,15.84
2019-06-10T03:44:52.969Z,15.78
2019-06-10T03:45:53.212Z,15.82
2019-06-10T03:46:52.908Z,15.76
2019-06-10T03:47:52.875Z,15.86
2019-06-10T03:48:52.850Z,15.86
2019-06-10T03:49:56.000Z,15.84
2019-06-10T03:50:52.774Z,15.84
2019-06-10T03:51:53.041Z,15.93
2019-06-10T03:52:52.721Z,15.92
2019-06-10T03:53:53.076Z,15.94
2019-06-10T03:54:52.653Z,15.92
2019-06-10T03:55:52.700Z,15.89
2019-06-10T03:56:52.568Z,15.93
2019-06-10T03:57:52.709Z,15.93
2019-06-10T03:58:52.516Z,15.94
2019-06-10T03:59:52.839Z,16.00
2019-06-10T04:00:52.447Z,16.04
2019-06-10T04:01:52.938Z,16.01
2019-06-10T04:02:53.211Z,16.04
2019-06-10T04:03:52.968Z,16.11
2019-06-10T04:04:52.468Z,16.11
2019-06-10T04:05:52.716Z,16.11
2019-06-10T04:06:53.208Z,16.11
2019-06-10T04:07:52.693Z,16.20
2019-06-10T04:08:52.373Z,16.21
2019-06-10T04:09:52.672Z,16.23
2019-06-10T04:10:52.205Z,16.39
2019-06-10T04:11:53.309Z,16.43
2019-06-10T04:12:52.400Z,16.50
2019-06-10T04:13:53.529Z,16.63
2019-06-10T04:14:52.226Z,16.71
2019-06-10T04:15:53.452Z,16.81
2019-06-10T04:16:52.532Z,16.93
2019-06-10T04:17:53.098Z,17.22
2019-06-10T04:18:53.435Z,17.49
2019-06-10T04:20:07.543Z,17.51
2019-06-10T04:20:52.862Z,17.54
2019-06-10T04:21:53.252Z,17.41
2019-06-10T04:22:52.318Z,17.30
2019-06-10T04:23:52.861Z,17.23
2019-06-10T04:24:52.067Z,17.26
2019-06-10T04:25:52.704Z,17.28
2019-06-10T04:26:52.135Z,17.23
2019-06-10T04:27:52.443Z,17.19
2019-06-10T04:28:53.024Z,17.15
2019-06-10T04:29:52.412Z,17.14
2019-06-10T04:30:53.080Z,17.19
2019-06-10T04:31:52.371Z,17.22
2019-06-10T04:32:52.917Z,17.21
2019-06-10T04:33:52.361Z,17.30
2019-06-10T04:34:52.950Z,17.28
2019-06-10T04:35:51.973Z,17.26
2019-06-10T04:36:52.550Z,17.38
2019-06-10T04:37:52.024Z,17.46
2019-06-10T04:38:52.470Z,17.56
2019-06-10T04:39:53.026Z,17.55
2019-06-10T04:40:52.554Z,17.62
2019-06-10T04:41:53.058Z,17.56
2019-06-10T04:42:52.533Z,17.59
2019-06-10T04:43:53.026Z,17.51
2019-06-10T04:44:52.547Z,17.51
2019-06-10T04:45:52.768Z,17.71
2019-06-10T04:46:52.085Z,17.78
2019-06-10T04:47:52.429Z,17.75
2019-06-10T04:48:52.764Z,17.82
2019-06-10T04:49:52.240Z,17.84
2019-06-10T04:50:53.155Z,17.87
2019-06-10T04:51:52.444Z,17.84
2019-06-10T04:52:52.846Z,17.93
2019-06-10T04:53:52.424Z,17.99
2019-06-10T04:54:52.599Z,18.08
2019-06-10T04:55:52.255Z,18.17
2019-06-10T04:56:52.756Z,18.35
2019-06-10T04:57:52.126Z,18.36
2019-06-10T04:58:52.524Z,18.42
2019-06-10T04:59:52.869Z,18.52
2019-06-10T05:00:52.391Z,18.55
2019-06-10T05:01:52.891Z,18.65
2019-06-10T05:02:52.243Z,18.60
2019-06-10T05:03:52.447Z,18.52
2019-06-10T05:04:50.344Z,18.65
2019-06-10T05:05:52.619Z,18.55
2019-06-10T05:06:52.555Z,18.63
2019-06-10T05:07:52.059Z,18.63
2019-06-10T05:08:50.179Z,18.69
2019-06-10T05:09:52.379Z,18.60
2019-06-10T05:10:50.162Z,18.70
2019-06-10T05:11:52.100Z,18.78
2019-06-10T05:12:52.435Z,18.78
2019-06-10T05:13:50.009Z,18.90
2019-06-10T05:14:52.532Z,18.95
2019-06-10T05:15:52.562Z,18.90
2019-06-10T05:16:49.912Z,18.90
2019-06-10T05:17:52.512Z,19.08
2019-06-10T05:18:54.010Z,19.13
2019-06-10T05:19:49.814Z,19.16
2019-06-10T05:20:57.743Z,19.25
2019-06-10T05:21:49.764Z,19.39
2019-06-10T05:22:49.721Z,19.33
2019-06-10T05:23:52.095Z,19.26
2019-06-10T05:24:49.669Z,19.14
2019-06-10T05:25:52.267Z,19.16
2019-06-10T05:26:49.632Z,19.13
2019-06-10T05:27:49.603Z,19.21
2019-06-10T05:28:49.542Z,19.33
2019-06-10T05:29:49.531Z,19.36
2019-06-10T05:30:49.490Z,19.46
2019-06-10T05:31:49.468Z,19.63
2019-06-10T05:32:49.435Z,19.71
2019-06-10T05:33:49.397Z,19.80
2019-06-10T05:34:49.376Z,20.01
2019-06-10T05:35:49.319Z,20.13
2019-06-10T05:36:49.288Z,20.29
2019-06-10T05:37:49.278Z,20.42
2019-06-10T05:38:49.269Z,20.52
2019-06-10T05:39:49.209Z,20.59
2019-06-10T05:40:49.176Z,20.64
2019-06-10T05:41:50.242Z,20.66
2019-06-10T05:42:49.125Z,20.67
2019-06-10T05:43:49.079Z,20.55
2019-06-10T05:44:49.035Z,20.48
2019-06-10T05:45:49.017Z,20.38
2019-06-10T05:46:48.995Z,20.33
2019-06-10T05:47:48.943Z,20.33
2019-06-10T05:48:48.912Z,20.36
2019-06-10T05:49:48.895Z,20.20
2019-06-10T05:51:00.184Z,20.14
2019-06-10T05:51:48.914Z,20.10
2019-06-10T05:52:48.798Z,20.05
2019-06-10T05:53:48.751Z,20.06
2019-06-10T05:54:48.737Z,20.10
2019-06-10T05:55:48.717Z,20.11
2019-06-10T05:56:48.766Z,20.11
2019-06-10T05:57:48.629Z,20.10
2019-06-10T05:58:48.606Z,20.24
2019-06-10T05:59:48.587Z,20.41
2019-06-10T06:00:48.551Z,20.36
2019-06-10T06:01:48.538Z,20.52
2019-06-10T06:02:48.491Z,20.48
2019-06-10T06:03:48.478Z,20.26
2019-06-10T06:04:48.458Z,20.28
2019-06-10T06:05:48.470Z,20.24
2019-06-10T06:06:48.365Z,20.36
2019-06-10T06:08:01.369Z,20.36
2019-06-10T06:08:48.295Z,20.54
2019-06-10T06:09:48.265Z,20.67
2019-06-10T06:10:48.260Z,20.82
2019-06-10T06:11:48.211Z,20.89
2019-06-10T06:12:48.199Z,20.97
2019-06-10T06:13:48.185Z,20.97
2019-06-10T06:14:48.112Z,21.09
2019-06-10T06:15:48.082Z,21.13
2019-06-10T06:16:48.055Z,21.22
2019-06-10T06:18:01.071Z,21.25
2019-06-10T06:18:47.975Z,21.32
2019-06-10T06:19:47.980Z,21.37
2019-06-10T06:20:47.913Z,21.44
2019-06-10T06:21:48.074Z,21.47
2019-06-10T06:22:47.871Z,21.46
2019-06-10T06:23:47.854Z,21.62
2019-06-10T06:24:47.826Z,21.71
2019-06-10T06:25:47.770Z,21.94
2019-06-10T06:26:47.771Z,22.02
2019-06-10T06:27:47.731Z,22.09
2019-06-10T06:28:47.756Z,22.25
2019-06-10T06:29:47.689Z,22.31
2019-06-10T06:30:47.669Z,22.39
2019-06-10T06:31:47.631Z,22.49
2019-06-10T06:32:47.601Z,22.46
2019-06-10T06:33:47.620Z,22.28
2019-06-10T06:34:47.520Z,22.17
2019-06-10T06:35:47.483Z,22.09
2019-06-10T06:36:47.453Z,22.07
2019-06-10T06:37:47.466Z,22.14
2019-06-10T06:38:47.424Z,22.09
2019-06-10T06:39:47.382Z,22.25
2019-06-10T06:40:47.343Z,22.54
2019-06-10T06:41:47.332Z,22.65
2019-06-10T06:42:47.358Z,22.95
2019-06-10T06:43:47.236Z,23.02
2019-06-10T06:44:47.209Z,23.17
2019-06-10T06:45:47.199Z,23.36
2019-06-10T06:46:47.153Z,23.58
2019-06-10T06:47:47.123Z,23.85
2019-06-10T06:48:47.089Z,23.48
2019-06-10T06:49:47.092Z,23.51
2019-06-10T06:51:02.101Z,23.43
2019-06-10T06:51:54.865Z,23.32
2019-06-10T06:53:16.895Z,23.20
2019-06-10T06:53:52.005Z,23.15
2019-06-10T06:54:46.977Z,22.90
2019-06-10T06:55:46.900Z,22.83
2019-06-10T06:56:46.875Z,22.95
2019-06-10T06:57:46.856Z,23.15
2019-06-10T06:58:46.810Z,23.35
2019-06-10T06:59:46.821Z,23.46
2019-06-10T07:01:00.715Z,23.58
2019-06-10T07:01:46.796Z,23.55
2019-06-10T07:02:46.745Z,23.80
2019-06-10T07:03:46.668Z,23.90
2019-06-10T07:04:46.643Z,23.97
2019-06-10T07:05:46.614Z,23.94
2019-06-10T07:06:46.663Z,23.78
2019-06-10T07:07:46.602Z,23.85
2019-06-10T07:09:00.466Z,23.93
2019-06-10T07:09:46.508Z,24.25
2019-06-10T07:10:46.512Z,24.12
2019-06-10T07:11:46.597Z,24.16
2019-06-10T07:12:46.419Z,23.98
2019-06-10T07:13:46.480Z,23.68
2019-06-10T07:14:46.398Z,23.68
2019-06-10T07:15:47.296Z,23.68
2019-06-10T07:16:46.831Z,23.75
2019-06-10T07:17:46.306Z,24.15
2019-06-10T07:18:50.291Z,24.58
2019-06-10T07:19:46.223Z,24.71
2019-06-10T07:20:46.198Z,24.91
2019-06-10T07:22:07.535Z,25.46
2019-06-10T07:22:46.568Z,25.97
2019-06-10T07:23:47.122Z,26.50
2019-06-10T07:24:47.498Z,26.57
2019-06-10T07:25:47.565Z,26.32
2019-06-10T07:26:52.224Z,25.69
2019-06-10T07:27:46.967Z,25.38
2019-06-10T07:28:47.461Z,25.45
2019-06-10T07:29:47.366Z,25.32
2019-06-10T07:30:51.177Z,25.32
2019-06-10T07:31:49.988Z,25.25
2019-06-10T07:32:47.380Z,25.14
2019-06-10T07:33:47.427Z,25.52
2019-06-10T07:34:47.002Z,25.94
2019-06-10T07:35:45.815Z,25.95
2019-06-10T07:36:45.807Z,26.17
2019-06-10T07:37:46.105Z,26.72
2019-06-10T07:38:48.859Z,27.25
2019-06-10T07:39:45.726Z,27.31
2019-06-10T07:40:45.957Z,26.87
2019-06-10T07:41:47.863Z,26.13
2019-06-10T07:42:45.643Z,25.54
2019-06-10T07:43:49.540Z,25.35
2019-06-10T07:44:45.606Z,25.02
2019-06-10T07:45:47.934Z,24.84
2019-06-10T07:46:45.751Z,24.73
2019-06-10T07:47:45.761Z,24.47
2019-06-10T07:48:48.151Z,24.64
2019-06-10T07:49:45.728Z,25.15
2019-06-10T07:50:45.891Z,25.57
2019-06-10T07:51:46.484Z,26.02
2019-06-10T07:52:46.814Z,26.60
2019-06-10T07:53:46.853Z,27.07
2019-06-10T07:54:45.421Z,27.47
2019-06-10T07:55:46.588Z,27.75
2019-06-10T07:56:50.291Z,27.84
2019-06-10T07:57:45.682Z,27.99
2019-06-10T07:58:47.598Z,28.39
2019-06-10T07:59:45.991Z,28.51
2019-06-10T08:00:48.149Z,28.29
2019-06-10T08:01:51.432Z,28.61
2019-06-10T08:02:46.131Z,28.96
2019-06-10T08:03:46.658Z,28.66
2019-06-10T08:04:46.046Z,27.77
2019-06-10T08:05:46.487Z,27.28
2019-06-10T08:06:45.898Z,27.29
2019-06-10T08:07:47.231Z,27.25
2019-06-10T08:08:45.460Z,26.47
2019-06-10T08:09:45.781Z,25.99
2019-06-10T08:10:46.322Z,26.05
2019-06-10T08:11:46.938Z,26.25
2019-06-10T08:12:47.953Z,26.06
2019-06-10T08:13:46.355Z,25.91
2019-06-10T08:14:45.754Z,25.73
2019-06-10T08:15:46.184Z,25.76
2019-06-10T08:16:46.637Z,25.95
2019-06-10T08:17:45.741Z,26.29
2019-06-10T08:19:13.482Z,26.67
2019-06-10T08:19:49.539Z,26.70
2019-06-10T08:20:45.217Z,26.80
2019-06-10T08:21:48.854Z,26.92
2019-06-10T08:22:54.076Z,26.51
2019-06-10T08:23:46.905Z,25.97
2019-06-10T08:24:45.371Z,26.02
2019-06-10T08:25:50.978Z,25.90
2019-06-10T08:26:45.665Z,26.13
2019-06-10T08:27:47.380Z,26.28
2019-06-10T08:28:46.598Z,26.25
2019-06-10T08:29:48.050Z,26.21
2019-06-10T08:30:45.872Z,26.39
2019-06-10T08:31:47.956Z,26.45
2019-06-10T08:32:47.165Z,26.63
2019-06-10T08:33:47.088Z,26.84
2019-06-10T08:34:46.253Z,26.97
2019-06-10T08:35:53.624Z,27.72
2019-06-10T08:36:47.205Z,28.15
2019-06-10T08:37:45.934Z,28.29
2019-06-10T08:38:46.805Z,28.58
2019-06-10T08:39:45.933Z,28.58
2019-06-10T08:40:45.372Z,28.56
2019-06-10T08:41:47.767Z,28.59
2019-06-10T08:42:46.914Z,28.52
2019-06-10T08:43:45.613Z,28.11
2019-06-10T08:44:47.255Z,28.36
2019-06-10T08:45:45.804Z,27.79
2019-06-10T08:46:46.799Z,27.96
2019-06-10T08:47:45.989Z,28.25
2019-06-10T08:48:47.630Z,27.96
2019-06-10T08:49:46.220Z,28.09
2019-06-10T08:50:46.532Z,28.21
2019-06-10T08:51:48.024Z,28.15
2019-06-10T08:52:53.832Z,28.12
2019-06-10T08:53:46.503Z,28.03
2019-06-10T08:54:47.940Z,27.92
2019-06-10T08:55:46.115Z,27.74
2019-06-10T08:56:47.638Z,27.67
2019-06-10T08:57:48.893Z,27.36
2019-06-10T08:58:46.337Z,26.92
2019-06-10T08:59:47.432Z,26.70
2019-06-10T09:00:46.066Z,26.60
2019-06-10T09:01:46.862Z,26.82
2019-06-10T09:02:46.828Z,27.00
2019-06-10T09:03:47.752Z,27.00
2019-06-10T09:04:47.226Z,27.06
2019-06-10T09:05:46.520Z,27.14
2019-06-10T09:06:47.523Z,26.92
2019-06-10T09:07:46.390Z,26.91
2019-06-10T09:08:47.707Z,26.94
2019-06-10T09:09:45.952Z,26.88
2019-06-10T09:10:47.381Z,26.72
2019-06-10T09:11:47.498Z,26.76
2019-06-10T09:12:47.749Z,26.95
2019-06-10T09:13:46.297Z,27.22
2019-06-10T09:14:45.244Z,27.25
2019-06-10T09:15:47.543Z,27.21
2019-06-10T09:16:46.071Z,26.82
2019-06-10T09:17:47.585Z,26.94
2019-06-10T09:18:47.333Z,26.80
2019-06-10T09:19:46.089Z,26.91
2019-06-10T09:20:45.901Z,27.18
2019-06-10T09:21:48.074Z,27.54
2019-06-10T09:22:47.399Z,27.57
2019-06-10T09:23:47.112Z,27.41
2019-06-10T09:24:48.765Z,27.09
2019-06-10T09:25:48.569Z,27.12
2019-06-10T09:26:45.084Z,27.57
2019-06-10T09:27:47.683Z,27.99
2019-06-10T09:28:46.213Z,28.17
2019-06-10T09:29:48.044Z,28.52
2019-06-10T09:30:47.604Z,29.02
2019-06-10T09:31:46.824Z,29.23
2019-06-10T09:32:48.486Z,29.34
2019-06-10T09:33:49.071Z,28.85
2019-06-10T09:34:47.143Z,28.40
2019-06-10T09:35:47.309Z,28.12
2019-06-10T09:36:46.616Z,28.15
2019-06-10T09:37:48.417Z,28.21
2019-06-10T09:38:47.344Z,28.22
2019-06-10T09:39:50.446Z,28.07
2019-06-10T09:40:47.513Z,28.03
2019-06-10T09:41:51.901Z,27.87
2019-06-10T09:42:46.264Z,27.78
2019-06-10T09:43:48.283Z,27.99
2019-06-10T09:44:45.909Z,28.03
2019-06-10T09:45:45.934Z,28.17
2019-06-10T09:46:47.016Z,28.29
2019-06-10T09:47:47.165Z,28.11
2019-06-10T09:48:47.032Z,28.37
2019-06-10T09:49:45.746Z,28.56
2019-06-10T09:50:47.062Z,28.56
2019-06-10T09:51:45.833Z,28.41
2019-06-10T09:52:47.545Z,28.29
2019-06-10T09:53:51.480Z,27.94
2019-06-10T09:54:46.952Z,27.90
2019-06-10T09:55:46.294Z,27.87
2019-06-10T09:56:45.118Z,27.82
2019-06-10T09:57:45.130Z,27.78
2019-06-10T09:58:46.082Z,27.46
2019-06-10T09:59:46.333Z,27.10
2019-06-10T10:00:47.309Z,27.03
2019-06-10T10:01:47.305Z,26.91
2019-06-10T10:02:47.696Z,26.81
2019-06-10T10:03:47.762Z,26.73
2019-06-10T10:04:46.825Z,26.89
2019-06-10T10:05:55.186Z,27.06
2019-06-10T10:06:46.174Z,27.22
2019-06-10T10:07:46.615Z,27.22
2019-06-10T10:08:46.020Z,27.44
2019-06-10T10:09:46.535Z,27.60
2019-06-10T10:10:46.010Z,28.00
2019-06-10T10:11:44.459Z,28.29
2019-06-10T10:12:44.430Z,28.73
2019-06-10T10:13:45.297Z,28.67
2019-06-10T10:14:44.786Z,28.31
2019-06-10T10:15:42.019Z,28.70
2019-06-10T10:16:44.123Z,28.49
2019-06-10T10:17:44.792Z,28.62
2019-06-10T10:18:45.842Z,28.80
2019-06-10T10:19:45.324Z,28.62
2019-06-10T10:20:44.844Z,28.93
2019-06-10T10:21:47.745Z,29.15
2019-06-10T10:22:44.082Z,29.33
2019-06-10T10:23:51.088Z,29.31
2019-06-10T10:24:42.941Z,29.19
2019-06-10T10:25:44.885Z,29.31
2019-06-10T10:26:44.754Z,29.51
2019-06-10T10:27:45.565Z,29.79
2019-06-10T10:28:42.785Z,29.90
2019-06-10T10:29:43.616Z,29.97
2019-06-10T10:30:43.559Z,30.02
2019-06-10T10:31:45.057Z,30.43
2019-06-10T10:32:44.313Z,30.53
2019-06-10T10:33:42.550Z,30.73
2019-06-10T10:34:43.747Z,30.35
2019-06-10T10:35:43.178Z,30.02
2019-06-10T10:36:44.964Z,29.37
2019-06-10T10:37:42.396Z,28.93
2019-06-10T10:38:42.690Z,28.66
2019-06-10T10:39:42.560Z,28.77
2019-06-10T10:40:44.027Z,29.14
2019-06-10T10:41:44.244Z,29.24
2019-06-10T10:42:47.665Z,29.53
2019-06-10T10:43:43.577Z,29.73
2019-06-10T10:44:44.349Z,29.86
2019-06-10T10:45:43.518Z,29.58
2019-06-10T10:46:41.308Z,29.49
2019-06-10T10:47:41.289Z,29.45
2019-06-10T10:48:41.270Z,29.49
2019-06-10T10:49:41.261Z,29.64
2019-06-10T10:50:41.210Z,29.70
2019-06-10T10:51:41.204Z,30.02
2019-06-10T10:52:42.874Z,30.39
2019-06-10T10:53:44.141Z,29.73
2019-06-10T10:54:44.391Z,29.09
2019-06-10T10:55:42.546Z,29.00
2019-06-10T10:56:43.126Z,28.62
2019-06-10T10:57:41.058Z,29.08
2019-06-10T10:58:43.707Z,28.74
2019-06-10T10:59:43.121Z,28.66
2019-06-10T11:00:40.997Z,29.14
2019-06-10T11:01:42.722Z,29.15
2019-06-10T11:02:43.176Z,29.08
2019-06-10T11:03:44.949Z,28.93
2019-06-10T11:04:42.633Z,28.90
2019-06-10T11:05:40.895Z,28.96
2019-06-10T11:06:43.053Z,28.68
2019-06-10T11:07:42.288Z,28.74
2019-06-10T11:08:44.091Z,28.92
2019-06-10T11:09:42.448Z,29.14
2019-06-10T11:10:43.889Z,29.11
2019-06-10T11:11:44.029Z,28.68
2019-06-10T11:12:42.844Z,28.78
2019-06-10T11:13:43.088Z,28.86
2019-06-10T11:14:42.465Z,28.86
2019-06-10T11:15:43.367Z,28.70
2019-06-10T11:16:42.971Z,28.55
2019-06-10T11:17:42.687Z,28.52
2019-06-10T11:18:42.270Z,28.31
2019-06-10T11:19:40.594Z,28.39
2019-06-10T11:20:40.565Z,28.27
2019-06-10T11:21:42.632Z,28.24
2019-06-10T11:22:41.277Z,28.29
2019-06-10T11:23:43.215Z,28.41
2019-06-10T11:24:43.925Z,28.34
2019-06-10T11:25:43.016Z,28.22
2019-06-10T11:26:42.970Z,28.15
2019-06-10T11:27:43.005Z,28.29
2019-06-10T11:28:42.358Z,28.11
2019-06-10T11:29:42.284Z,28.17
2019-06-10T11:30:42.483Z,28.17
2019-06-10T11:31:42.445Z,28.31
2019-06-10T11:32:43.048Z,28.58
2019-06-10T11:33:40.247Z,28.54
2019-06-10T11:34:42.748Z,28.34
2019-06-10T11:35:42.679Z,28.49
2019-06-10T11:36:42.488Z,28.37
2019-06-10T11:37:42.084Z,28.55
2019-06-10T11:38:40.386Z,28.52
2019-06-10T11:39:40.125Z,28.41
2019-06-10T11:40:42.665Z,28.48
2019-06-10T11:41:40.169Z,28.64
2019-06-10T11:42:43.330Z,28.68
2019-06-10T11:43:42.660Z,28.64
2019-06-10T11:44:42.365Z,28.68
2019-06-10T11:45:47.437Z,28.96
2019-06-10T11:46:40.009Z,28.77
2019-06-10T11:47:42.457Z,28.85
2019-06-10T11:48:39.982Z,29.09
2019-06-10T11:49:39.912Z,29.12
2019-06-10T11:50:42.695Z,29.08
2019-06-10T11:51:40.031Z,29.34
2019-06-10T11:52:39.839Z,29.86
2019-06-10T11:53:39.847Z,30.15
2019-06-10T11:54:53.626Z,30.38
2019-06-10T11:55:39.772Z,30.60
2019-06-10T11:56:42.032Z,30.55
2019-06-10T11:57:39.747Z,30.49
2019-06-10T11:58:42.328Z,30.60
2019-06-10T11:59:39.695Z,30.60
2019-06-10T12:00:39.760Z,30.13
2019-06-10T12:01:39.703Z,29.80
2019-06-10T12:02:41.798Z,29.87
2019-06-10T12:03:39.570Z,29.64
2019-06-10T12:04:39.663Z,29.86
2019-06-10T12:05:39.584Z,30.08
2019-06-10T12:06:39.529Z,30.16
2019-06-10T12:07:39.502Z,30.02
2019-06-10T12:08:39.520Z,29.95
2019-06-10T12:09:39.514Z,29.95
2019-06-10T12:10:39.458Z,29.63
2019-06-10T12:11:39.771Z,29.11
2019-06-10T12:12:39.374Z,28.78
2019-06-10T12:13:39.352Z,28.54
2019-06-10T12:14:39.344Z,28.66
2019-06-10T12:16:13.897Z,28.70
2019-06-10T12:17:46.964Z,28.73
2019-06-10T12:18:39.415Z,28.46
2019-06-10T12:19:39.272Z,28.48
2019-06-10T12:20:39.259Z,28.73
2019-06-10T12:21:39.200Z,28.56
2019-06-10T12:22:39.205Z,28.46
2019-06-10T12:23:39.148Z,28.54
2019-06-10T12:24:39.150Z,28.48
2019-06-10T12:25:39.808Z,28.54
2019-06-10T12:26:39.123Z,28.46
2019-06-10T12:27:39.545Z,28.54
2019-06-10T12:28:39.050Z,28.46
2019-06-10T12:29:39.025Z,28.64
2019-06-10T12:30:38.998Z,28.73
2019-06-10T12:31:38.988Z,28.71
2019-06-10T12:32:38.948Z,29.02
2019-06-10T12:33:38.970Z,29.16
2019-06-10T12:34:38.907Z,29.45
2019-06-10T12:35:38.974Z,29.71
2019-06-10T12:36:38.845Z,30.07
2019-06-10T12:37:38.922Z,29.68
2019-06-10T12:38:38.815Z,29.95
2019-06-10T12:39:38.781Z,29.95
2019-06-10T12:40:38.752Z,29.85
2019-06-10T12:41:38.794Z,29.70
2019-06-10T12:42:38.755Z,29.86
2019-06-10T12:43:38.705Z,30.11
2019-06-10T12:44:38.684Z,30.61
2019-06-10T12:45:38.714Z,30.86
2019-06-10T12:46:38.631Z,31.01
2019-06-10T12:47:38.603Z,31.23
2019-06-10T12:48:38.579Z,31.13
2019-06-10T12:49:38.600Z,31.13
2019-06-10T12:50:38.575Z,31.46
2019-06-10T12:51:38.645Z,31.75
2019-06-10T12:52:38.525Z,32.22